sensor_id;sensor_type;location;lat;lon;timestamp;P1;durP1;ratioP1;P2;durP2;ratioP2
22715;SDS011;11525;51.152;4.456;2023-07-13T00:01:45;10.07;;;2.78;;
22715;SDS011;11525;51.152;4.456;2023-07-13T00:04:14;9.07;;;3.03;;
22715;SDS011;11525;51.152;4.456;2023-07-13T00:06:44;8.05;;;2.70;;
22715;SDS011;11525;51.152;4.456;2023-07-13T00:09:12;9.50;;;2.60;;
22715;SDS011;11525;51.152;4.456;2023-07-13T00:11:38;4.97;;;2.00;;
22715;SDS011;11525;51.152;4.456;2023-07-13T00:14:05;7.90;;;3.00;;
22715;SDS011;11525;51.152;4.456;2023-07-13T00:16:30;11.50;;;2.55;;
22715;SDS011;11525;51.152;4.456;2023-07-13T00:18:57;5.68;;;2.38;;
22715;SDS011;11525;51.152;4.456;2023-07-13T00:21:25;9.85;;;2.58;;
22715;SDS011;11525;51.152;4.456;2023-07-13T00:23:51;6.88;;;1.95;;
22715;SDS011;11525;51.152;4.456;2023-07-13T00:26:16;7.93;;;2.80;;
22715;SDS011;11525;51.152;4.456;2023-07-13T00:28:42;7.57;;;2.55;;
22715;SDS011;11525;51.152;4.456;2023-07-13T00:31:09;8.50;;;2.85;;
22715;SDS011;11525;51.152;4.456;2023-07-13T00:33:36;8.57;;;3.50;;
22715;SDS011;11525;51.152;4.456;2023-07-13T00:36:02;13.55;;;4.57;;
22715;SDS011;11525;51.152;4.456;2023-07-13T00:38:28;9.63;;;3.45;;
22715;SDS011;11525;51.152;4.456;2023-07-13T00:40:55;7.63;;;2.80;;
22715;SDS011;11525;51.152;4.456;2023-07-13T00:43:21;10.63;;;2.65;;
22715;SDS011;11525;51.152;4.456;2023-07-13T00:48:16;10.50;;;2.88;;
22715;SDS011;11525;51.152;4.456;2023-07-13T00:50:46;6.80;;;2.33;;
22715;SDS011;11525;51.152;4.456;2023-07-13T00:53:15;14.85;;;3.40;;
22715;SDS011;11525;51.152;4.456;2023-07-13T00:55:42;11.35;;;3.13;;
22715;SDS011;11525;51.152;4.456;2023-07-13T00:58:08;12.85;;;2.72;;
22715;SDS011;11525;51.152;4.456;2023-07-13T01:00:35;11.13;;;3.42;;
22715;SDS011;11525;51.152;4.456;2023-07-13T01:03:03;11.75;;;2.95;;
22715;SDS011;11525;51.152;4.456;2023-07-13T01:05:29;11.48;;;3.20;;
22715;SDS011;11525;51.152;4.456;2023-07-13T01:07:56;14.35;;;3.00;;
22715;SDS011;11525;51.152;4.456;2023-07-13T01:10:24;11.52;;;2.88;;
22715;SDS011;11525;51.152;4.456;2023-07-13T01:12:50;12.70;;;3.40;;
22715;SDS011;11525;51.152;4.456;2023-07-13T01:15:33;9.82;;;3.08;;
22715;SDS011;11525;51.152;4.456;2023-07-13T01:18:05;12.02;;;3.13;;
22715;SDS011;11525;51.152;4.456;2023-07-13T01:20:34;14.20;;;3.25;;
22715;SDS011;11525;51.152;4.456;2023-07-13T01:23:01;15.25;;;2.90;;
22715;SDS011;11525;51.152;4.456;2023-07-13T01:25:34;10.05;;;2.88;;
22715;SDS011;11525;51.152;4.456;2023-07-13T01:28:01;7.43;;;2.70;;
22715;SDS011;11525;51.152;4.456;2023-07-13T01:30:30;8.93;;;3.05;;
22715;SDS011;11525;51.152;4.456;2023-07-13T01:32:57;13.63;;;3.10;;
22715;SDS011;11525;51.152;4.456;2023-07-13T01:35:23;11.38;;;3.30;;
22715;SDS011;11525;51.152;4.456;2023-07-13T01:37:50;9.85;;;3.20;;
22715;SDS011;11525;51.152;4.456;2023-07-13T01:40:16;9.93;;;3.35;;
22715;SDS011;11525;51.152;4.456;2023-07-13T01:42:42;13.38;;;3.53;;
22715;SDS011;11525;51.152;4.456;2023-07-13T01:45:07;10.85;;;3.08;;
22715;SDS011;11525;51.152;4.456;2023-07-13T01:47:33;13.88;;;3.47;;
22715;SDS011;11525;51.152;4.456;2023-07-13T01:49:59;7.35;;;3.03;;
22715;SDS011;11525;51.152;4.456;2023-07-13T01:52:24;7.95;;;2.90;;
22715;SDS011;11525;51.152;4.456;2023-07-13T01:54:50;12.77;;;3.60;;
22715;SDS011;11525;51.152;4.456;2023-07-13T01:57:16;14.43;;;3.67;;
22715;SDS011;11525;51.152;4.456;2023-07-13T01:59:42;12.98;;;3.75;;
22715;SDS011;11525;51.152;4.456;2023-07-13T02:02:07;12.55;;;3.25;;
22715;SDS011;11525;51.152;4.456;2023-07-13T02:04:33;11.07;;;3.35;;
22715;SDS011;11525;51.152;4.456;2023-07-13T02:06:59;12.18;;;3.80;;
22715;SDS011;11525;51.152;4.456;2023-07-13T02:09:25;14.57;;;3.53;;
22715;SDS011;11525;51.152;4.456;2023-07-13T02:11:51;11.05;;;3.58;;
22715;SDS011;11525;51.152;4.456;2023-07-13T02:14:16;12.52;;;3.40;;
22715;SDS011;11525;51.152;4.456;2023-07-13T02:16:42;11.65;;;3.40;;
22715;SDS011;11525;51.152;4.456;2023-07-13T02:19:08;12.40;;;3.35;;
22715;SDS011;11525;51.152;4.456;2023-07-13T02:21:34;11.80;;;4.28;;
22715;SDS011;11525;51.152;4.456;2023-07-13T02:24:00;9.77;;;3.65;;
22715;SDS011;11525;51.152;4.456;2023-07-13T02:26:26;11.63;;;3.78;;
22715;SDS011;11525;51.152;4.456;2023-07-13T02:28:52;17.05;;;3.97;;
22715;SDS011;11525;51.152;4.456;2023-07-13T02:31:17;16.70;;;3.15;;
22715;SDS011;11525;51.152;4.456;2023-07-13T02:33:43;14.10;;;4.03;;
22715;SDS011;11525;51.152;4.456;2023-07-13T02:36:09;12.50;;;3.28;;
22715;SDS011;11525;51.152;4.456;2023-07-13T02:38:35;14.30;;;3.20;;
22715;SDS011;11525;51.152;4.456;2023-07-13T02:41:04;11.35;;;3.53;;
22715;SDS011;11525;51.152;4.456;2023-07-13T02:43:31;11.48;;;3.85;;
22715;SDS011;11525;51.152;4.456;2023-07-13T02:45:58;16.20;;;3.65;;
22715;SDS011;11525;51.152;4.456;2023-07-13T02:48:29;13.90;;;3.92;;
22715;SDS011;11525;51.152;4.456;2023-07-13T02:50:55;12.70;;;3.67;;
22715;SDS011;11525;51.152;4.456;2023-07-13T02:53:20;9.18;;;3.35;;
22715;SDS011;11525;51.152;4.456;2023-07-13T02:55:46;13.48;;;3.35;;
22715;SDS011;11525;51.152;4.456;2023-07-13T02:58:12;11.93;;;3.53;;
22715;SDS011;11525;51.152;4.456;2023-07-13T03:00:41;15.60;;;3.47;;
22715;SDS011;11525;51.152;4.456;2023-07-13T03:03:08;9.68;;;2.90;;
22715;SDS011;11525;51.152;4.456;2023-07-13T03:05:33;14.27;;;3.75;;
22715;SDS011;11525;51.152;4.456;2023-07-13T03:07:59;8.73;;;3.55;;
22715;SDS011;11525;51.152;4.456;2023-07-13T03:10:24;15.43;;;3.95;;
22715;SDS011;11525;51.152;4.456;2023-07-13T03:12:50;9.27;;;3.30;;
22715;SDS011;11525;51.152;4.456;2023-07-13T03:15:16;12.07;;;3.30;;
22715;SDS011;11525;51.152;4.456;2023-07-13T03:17:41;15.20;;;3.53;;
22715;SDS011;11525;51.152;4.456;2023-07-13T03:20:07;21.50;;;3.78;;
22715;SDS011;11525;51.152;4.456;2023-07-13T03:22:33;11.18;;;3.25;;
22715;SDS011;11525;51.152;4.456;2023-07-13T03:24:59;11.20;;;3.58;;
22715;SDS011;11525;51.152;4.456;2023-07-13T03:27:25;9.90;;;3.42;;
22715;SDS011;11525;51.152;4.456;2023-07-13T03:29:50;9.63;;;3.33;;
22715;SDS011;11525;51.152;4.456;2023-07-13T03:32:16;14.27;;;3.85;;
22715;SDS011;11525;51.152;4.456;2023-07-13T03:34:41;16.25;;;3.88;;
22715;SDS011;11525;51.152;4.456;2023-07-13T03:37:07;10.13;;;3.60;;
22715;SDS011;11525;51.152;4.456;2023-07-13T03:39:33;17.60;;;5.00;;
22715;SDS011;11525;51.152;4.456;2023-07-13T03:41:59;16.55;;;4.45;;
22715;SDS011;11525;51.152;4.456;2023-07-13T03:44:24;15.02;;;4.47;;
22715;SDS011;11525;51.152;4.456;2023-07-13T03:46:50;18.58;;;4.13;;
22715;SDS011;11525;51.152;4.456;2023-07-13T03:49:15;13.30;;;4.00;;
22715;SDS011;11525;51.152;4.456;2023-07-13T03:51:41;18.25;;;4.40;;
22715;SDS011;11525;51.152;4.456;2023-07-13T03:54:07;12.77;;;4.20;;
22715;SDS011;11525;51.152;4.456;2023-07-13T03:56:33;16.83;;;4.80;;
22715;SDS011;11525;51.152;4.456;2023-07-13T03:58:59;14.35;;;4.07;;
22715;SDS011;11525;51.152;4.456;2023-07-13T04:01:25;13.25;;;4.57;;
22715;SDS011;11525;51.152;4.456;2023-07-13T04:03:51;15.18;;;4.35;;
22715;SDS011;11525;51.152;4.456;2023-07-13T04:06:21;14.75;;;4.63;;
22715;SDS011;11525;51.152;4.456;2023-07-13T04:08:50;19.27;;;5.50;;
22715;SDS011;11525;51.152;4.456;2023-07-13T04:11:18;19.88;;;5.05;;
22715;SDS011;11525;51.152;4.456;2023-07-13T04:13:44;12.88;;;4.38;;
22715;SDS011;11525;51.152;4.456;2023-07-13T04:16:10;16.05;;;4.28;;
22715;SDS011;11525;51.152;4.456;2023-07-13T04:18:37;13.48;;;4.20;;
22715;SDS011;11525;51.152;4.456;2023-07-13T04:21:02;19.95;;;4.28;;
22715;SDS011;11525;51.152;4.456;2023-07-13T04:23:29;15.45;;;3.83;;
22715;SDS011;11525;51.152;4.456;2023-07-13T04:25:55;15.15;;;3.85;;
22715;SDS011;11525;51.152;4.456;2023-07-13T04:28:21;12.98;;;3.42;;
22715;SDS011;11525;51.152;4.456;2023-07-13T04:30:48;10.65;;;3.72;;
22715;SDS011;11525;51.152;4.456;2023-07-13T04:33:14;13.13;;;4.10;;
22715;SDS011;11525;51.152;4.456;2023-07-13T04:35:42;17.27;;;5.00;;
22715;SDS011;11525;51.152;4.456;2023-07-13T04:38:09;12.75;;;4.18;;
22715;SDS011;11525;51.152;4.456;2023-07-13T04:40:36;17.42;;;4.88;;
22715;SDS011;11525;51.152;4.456;2023-07-13T04:43:02;15.48;;;4.57;;
22715;SDS011;11525;51.152;4.456;2023-07-13T04:45:28;12.95;;;3.63;;
22715;SDS011;11525;51.152;4.456;2023-07-13T04:47:54;16.05;;;3.78;;
22715;SDS011;11525;51.152;4.456;2023-07-13T04:50:19;14.98;;;4.28;;
22715;SDS011;11525;51.152;4.456;2023-07-13T04:52:48;14.50;;;4.22;;
22715;SDS011;11525;51.152;4.456;2023-07-13T04:55:17;14.30;;;4.40;;
22715;SDS011;11525;51.152;4.456;2023-07-13T04:57:43;15.05;;;4.45;;
22715;SDS011;11525;51.152;4.456;2023-07-13T05:00:09;16.38;;;4.68;;
22715;SDS011;11525;51.152;4.456;2023-07-13T05:02:37;16.55;;;4.18;;
22715;SDS011;11525;51.152;4.456;2023-07-13T05:05:03;15.75;;;4.22;;
22715;SDS011;11525;51.152;4.456;2023-07-13T05:07:29;12.23;;;3.75;;
22715;SDS011;11525;51.152;4.456;2023-07-13T05:09:55;11.25;;;3.85;;
22715;SDS011;11525;51.152;4.456;2023-07-13T05:12:21;10.75;;;3.65;;
22715;SDS011;11525;51.152;4.456;2023-07-13T05:14:46;11.88;;;4.22;;
22715;SDS011;11525;51.152;4.456;2023-07-13T05:17:14;17.48;;;5.20;;
22715;SDS011;11525;51.152;4.456;2023-07-13T05:19:39;19.02;;;4.50;;
22715;SDS011;11525;51.152;4.456;2023-07-13T05:22:05;13.50;;;4.45;;
22715;SDS011;11525;51.152;4.456;2023-07-13T05:24:31;22.33;;;4.40;;
22715;SDS011;11525;51.152;4.456;2023-07-13T05:26:56;18.35;;;4.78;;
22715;SDS011;11525;51.152;4.456;2023-07-13T05:29:22;11.32;;;3.70;;
22715;SDS011;11525;51.152;4.456;2023-07-13T05:31:48;21.23;;;4.13;;
22715;SDS011;11525;51.152;4.456;2023-07-13T05:34:14;12.90;;;4.00;;
22715;SDS011;11525;51.152;4.456;2023-07-13T05:36:40;20.75;;;4.47;;
22715;SDS011;11525;51.152;4.456;2023-07-13T05:39:06;11.95;;;4.07;;
22715;SDS011;11525;51.152;4.456;2023-07-13T05:41:31;16.10;;;4.00;;
22715;SDS011;11525;51.152;4.456;2023-07-13T05:43:57;15.65;;;5.13;;
22715;SDS011;11525;51.152;4.456;2023-07-13T05:46:23;13.93;;;4.28;;
22715;SDS011;11525;51.152;4.456;2023-07-13T05:48:49;15.25;;;4.35;;
22715;SDS011;11525;51.152;4.456;2023-07-13T05:51:14;18.13;;;4.28;;
22715;SDS011;11525;51.152;4.456;2023-07-13T05:53:40;13.35;;;3.63;;
22715;SDS011;11525;51.152;4.456;2023-07-13T05:56:06;15.15;;;4.32;;
22715;SDS011;11525;51.152;4.456;2023-07-13T05:58:31;15.43;;;4.13;;
22715;SDS011;11525;51.152;4.456;2023-07-13T06:01:04;12.68;;;4.10;;
22715;SDS011;11525;51.152;4.456;2023-07-13T06:03:32;19.15;;;4.97;;
22715;SDS011;11525;51.152;4.456;2023-07-13T06:05:58;15.43;;;4.45;;
22715;SDS011;11525;51.152;4.456;2023-07-13T06:08:25;21.88;;;4.93;;
22715;SDS011;11525;51.152;4.456;2023-07-13T06:10:51;17.58;;;5.07;;
22715;SDS011;11525;51.152;4.456;2023-07-13T06:13:17;17.80;;;4.35;;
22715;SDS011;11525;51.152;4.456;2023-07-13T06:15:47;19.15;;;4.45;;
22715;SDS011;11525;51.152;4.456;2023-07-13T06:18:16;15.43;;;3.55;;
22715;SDS011;11525;51.152;4.456;2023-07-13T06:20:41;14.85;;;3.80;;
22715;SDS011;11525;51.152;4.456;2023-07-13T06:23:07;12.25;;;3.83;;
22715;SDS011;11525;51.152;4.456;2023-07-13T06:25:33;15.05;;;4.07;;
22715;SDS011;11525;51.152;4.456;2023-07-13T06:27:58;18.73;;;4.13;;
22715;SDS011;11525;51.152;4.456;2023-07-13T06:30:25;23.48;;;4.60;;
22715;SDS011;11525;51.152;4.456;2023-07-13T06:32:51;13.68;;;4.28;;
22715;SDS011;11525;51.152;4.456;2023-07-13T06:35:18;15.15;;;4.07;;
22715;SDS011;11525;51.152;4.456;2023-07-13T06:37:44;14.68;;;3.63;;
22715;SDS011;11525;51.152;4.456;2023-07-13T06:40:09;10.20;;;3.70;;
22715;SDS011;11525;51.152;4.456;2023-07-13T06:42:35;14.90;;;4.22;;
22715;SDS011;11525;51.152;4.456;2023-07-13T06:45:01;14.27;;;4.28;;
22715;SDS011;11525;51.152;4.456;2023-07-13T06:47:27;15.18;;;4.03;;
22715;SDS011;11525;51.152;4.456;2023-07-13T06:49:53;17.15;;;3.83;;
22715;SDS011;11525;51.152;4.456;2023-07-13T06:52:18;23.02;;;4.68;;
22715;SDS011;11525;51.152;4.456;2023-07-13T06:54:44;14.82;;;3.67;;
22715;SDS011;11525;51.152;4.456;2023-07-13T06:57:09;15.88;;;3.83;;
22715;SDS011;11525;51.152;4.456;2023-07-13T06:59:35;16.73;;;3.83;;
22715;SDS011;11525;51.152;4.456;2023-07-13T07:02:01;17.95;;;4.03;;
22715;SDS011;11525;51.152;4.456;2023-07-13T07:04:26;14.95;;;3.65;;
22715;SDS011;11525;51.152;4.456;2023-07-13T07:06:52;10.30;;;3.35;;
22715;SDS011;11525;51.152;4.456;2023-07-13T07:09:18;13.00;;;3.97;;
22715;SDS011;11525;51.152;4.456;2023-07-13T07:11:43;14.73;;;3.80;;
22715;SDS011;11525;51.152;4.456;2023-07-13T07:14:09;9.05;;;2.90;;
22715;SDS011;11525;51.152;4.456;2023-07-13T07:16:35;12.02;;;3.17;;
22715;SDS011;11525;51.152;4.456;2023-07-13T07:19:00;18.27;;;3.50;;
22715;SDS011;11525;51.152;4.456;2023-07-13T07:21:26;14.63;;;3.40;;
22715;SDS011;11525;51.152;4.456;2023-07-13T07:23:52;10.23;;;3.13;;
22715;SDS011;11525;51.152;4.456;2023-07-13T07:26:18;12.43;;;2.80;;
22715;SDS011;11525;51.152;4.456;2023-07-13T07:28:43;12.82;;;3.33;;
22715;SDS011;11525;51.152;4.456;2023-07-13T07:31:09;16.02;;;3.78;;
22715;SDS011;11525;51.152;4.456;2023-07-13T07:33:35;10.18;;;2.92;;
22715;SDS011;11525;51.152;4.456;2023-07-13T07:36:01;11.85;;;3.13;;
22715;SDS011;11525;51.152;4.456;2023-07-13T07:38:27;11.18;;;3.45;;
22715;SDS011;11525;51.152;4.456;2023-07-13T07:40:53;9.38;;;2.90;;
22715;SDS011;11525;51.152;4.456;2023-07-13T07:43:18;9.25;;;2.90;;
22715;SDS011;11525;51.152;4.456;2023-07-13T07:45:44;11.00;;;2.97;;
22715;SDS011;11525;51.152;4.456;2023-07-13T07:48:11;12.98;;;2.72;;
22715;SDS011;11525;51.152;4.456;2023-07-13T07:50:37;13.65;;;3.03;;
22715;SDS011;11525;51.152;4.456;2023-07-13T07:53:04;12.52;;;3.00;;
22715;SDS011;11525;51.152;4.456;2023-07-13T07:55:32;12.13;;;3.08;;
22715;SDS011;11525;51.152;4.456;2023-07-13T07:58:00;10.50;;;2.67;;
22715;SDS011;11525;51.152;4.456;2023-07-13T08:00:26;12.00;;;3.45;;
22715;SDS011;11525;51.152;4.456;2023-07-13T08:02:55;8.57;;;2.80;;
22715;SDS011;11525;51.152;4.456;2023-07-13T08:05:21;10.80;;;3.15;;
22715;SDS011;11525;51.152;4.456;2023-07-13T08:07:46;11.05;;;2.80;;
22715;SDS011;11525;51.152;4.456;2023-07-13T08:10:12;16.55;;;3.58;;
22715;SDS011;11525;51.152;4.456;2023-07-13T08:12:38;12.80;;;3.17;;
22715;SDS011;11525;51.152;4.456;2023-07-13T08:15:04;16.33;;;3.22;;
22715;SDS011;11525;51.152;4.456;2023-07-13T08:17:31;10.35;;;3.10;;
22715;SDS011;11525;51.152;4.456;2023-07-13T08:19:57;8.60;;;2.67;;
22715;SDS011;11525;51.152;4.456;2023-07-13T08:22:22;12.65;;;3.40;;
22715;SDS011;11525;51.152;4.456;2023-07-13T08:24:48;11.68;;;3.35;;
22715;SDS011;11525;51.152;4.456;2023-07-13T08:27:21;12.55;;;2.85;;
22715;SDS011;11525;51.152;4.456;2023-07-13T08:29:47;13.20;;;3.13;;
22715;SDS011;11525;51.152;4.456;2023-07-13T08:32:14;13.15;;;2.83;;
22715;SDS011;11525;51.152;4.456;2023-07-13T08:34:39;9.43;;;2.67;;
22715;SDS011;11525;51.152;4.456;2023-07-13T08:37:05;9.27;;;2.85;;
22715;SDS011;11525;51.152;4.456;2023-07-13T08:39:32;10.57;;;2.88;;
22715;SDS011;11525;51.152;4.456;2023-07-13T08:42:02;8.80;;;2.80;;
22715;SDS011;11525;51.152;4.456;2023-07-13T08:47:22;10.70;;;2.97;;
22715;SDS011;11525;51.152;4.456;2023-07-13T08:49:49;10.80;;;2.88;;
22715;SDS011;11525;51.152;4.456;2023-07-13T08:54:43;4.97;;;1.92;;
22715;SDS011;11525;51.152;4.456;2023-07-13T08:57:18;10.00;;;2.72;;
22715;SDS011;11525;51.152;4.456;2023-07-13T08:59:46;8.95;;;2.70;;
22715;SDS011;11525;51.152;4.456;2023-07-13T09:05:15;7.85;;;2.58;;
22715;SDS011;11525;51.152;4.456;2023-07-13T09:10:44;7.70;;;2.20;;
22715;SDS011;11525;51.152;4.456;2023-07-13T09:13:33;9.90;;;2.25;;
22715;SDS011;11525;51.152;4.456;2023-07-13T09:16:04;10.77;;;2.92;;
22715;SDS011;11525;51.152;4.456;2023-07-13T09:18:49;5.20;;;1.88;;
22715;SDS011;11525;51.152;4.456;2023-07-13T09:21:22;10.45;;;2.40;;
22715;SDS011;11525;51.152;4.456;2023-07-13T09:23:52;7.50;;;2.13;;
22715;SDS011;11525;51.152;4.456;2023-07-13T09:26:21;6.40;;;2.40;;
22715;SDS011;11525;51.152;4.456;2023-07-13T09:28:53;8.07;;;2.30;;
22715;SDS011;11525;51.152;4.456;2023-07-13T09:31:31;9.93;;;2.25;;
22715;SDS011;11525;51.152;4.456;2023-07-13T09:33:59;7.97;;;2.17;;
22715;SDS011;11525;51.152;4.456;2023-07-13T09:36:29;4.90;;;2.22;;
22715;SDS011;11525;51.152;4.456;2023-07-13T09:39:10;8.98;;;2.30;;
22715;SDS011;11525;51.152;4.456;2023-07-13T09:41:47;7.25;;;2.42;;
22715;SDS011;11525;51.152;4.456;2023-07-13T09:44:18;5.47;;;2.40;;
22715;SDS011;11525;51.152;4.456;2023-07-13T09:46:56;9.00;;;2.53;;
22715;SDS011;11525;51.152;4.456;2023-07-13T09:49:26;6.75;;;2.50;;
22715;SDS011;11525;51.152;4.456;2023-07-13T09:52:03;10.00;;;2.67;;
22715;SDS011;11525;51.152;4.456;2023-07-13T09:54:35;6.85;;;2.40;;
22715;SDS011;11525;51.152;4.456;2023-07-13T09:57:02;7.95;;;2.35;;
22715;SDS011;11525;51.152;4.456;2023-07-13T09:59:30;5.40;;;1.63;;
22715;SDS011;11525;51.152;4.456;2023-07-13T10:02:25;8.52;;;2.30;;
22715;SDS011;11525;51.152;4.456;2023-07-13T10:05:02;12.73;;;2.60;;
22715;SDS011;11525;51.152;4.456;2023-07-13T10:07:30;6.03;;;2.20;;
22715;SDS011;11525;51.152;4.456;2023-07-13T10:09:58;6.20;;;1.95;;
22715;SDS011;11525;51.152;4.456;2023-07-13T10:12:29;7.60;;;2.33;;
22715;SDS011;11525;51.152;4.456;2023-07-13T10:15:00;4.78;;;1.67;;
22715;SDS011;11525;51.152;4.456;2023-07-13T10:17:29;5.03;;;2.00;;
22715;SDS011;11525;51.152;4.456;2023-07-13T10:20:00;6.30;;;2.25;;
22715;SDS011;11525;51.152;4.456;2023-07-13T10:25:20;9.95;;;2.63;;
22715;SDS011;11525;51.152;4.456;2023-07-13T10:27:56;12.15;;;2.47;;
22715;SDS011;11525;51.152;4.456;2023-07-13T10:30:27;7.88;;;2.17;;
22715;SDS011;11525;51.152;4.456;2023-07-13T10:33:00;5.88;;;2.13;;
22715;SDS011;11525;51.152;4.456;2023-07-13T10:35:28;6.75;;;1.90;;
22715;SDS011;11525;51.152;4.456;2023-07-13T10:37:56;8.40;;;2.10;;
22715;SDS011;11525;51.152;4.456;2023-07-13T10:40:41;6.45;;;2.10;;
22715;SDS011;11525;51.152;4.456;2023-07-13T10:43:32;9.00;;;2.45;;
22715;SDS011;11525;51.152;4.456;2023-07-13T10:46:05;5.47;;;1.85;;
22715;SDS011;11525;51.152;4.456;2023-07-13T10:48:33;6.95;;;1.90;;
22715;SDS011;11525;51.152;4.456;2023-07-13T10:51:01;4.22;;;1.50;;
22715;SDS011;11525;51.152;4.456;2023-07-13T10:53:32;4.93;;;1.90;;
22715;SDS011;11525;51.152;4.456;2023-07-13T10:56:01;11.68;;;2.40;;
22715;SDS011;11525;51.152;4.456;2023-07-13T10:58:41;4.25;;;2.00;;
22715;SDS011;11525;51.152;4.456;2023-07-13T11:01:12;7.88;;;1.65;;
22715;SDS011;11525;51.152;4.456;2023-07-13T11:18:50;6.00;;;2.08;;
22715;SDS011;11525;51.152;4.456;2023-07-13T11:29:09;4.30;;;1.40;;
22715;SDS011;11525;51.152;4.456;2023-07-13T11:31:54;5.03;;;1.58;;
22715;SDS011;11525;51.152;4.456;2023-07-13T11:34:25;5.47;;;1.98;;
22715;SDS011;11525;51.152;4.456;2023-07-13T11:36:55;10.70;;;2.40;;
22715;SDS011;11525;51.152;4.456;2023-07-13T11:39:24;5.93;;;2.42;;
22715;SDS011;11525;51.152;4.456;2023-07-13T11:41:58;9.55;;;2.85;;
22715;SDS011;11525;51.152;4.456;2023-07-13T11:44:27;7.93;;;2.58;;
22715;SDS011;11525;51.152;4.456;2023-07-13T11:46:58;5.72;;;2.42;;
22715;SDS011;11525;51.152;4.456;2023-07-13T11:49:29;7.80;;;3.00;;
22715;SDS011;11525;51.152;4.456;2023-07-13T11:51:55;10.25;;;4.13;;
22715;SDS011;11525;51.152;4.456;2023-07-13T11:54:27;9.27;;;4.05;;
22715;SDS011;11525;51.152;4.456;2023-07-13T11:56:56;7.93;;;3.50;;
22715;SDS011;11525;51.152;4.456;2023-07-13T11:59:37;6.35;;;3.53;;
22715;SDS011;11525;51.152;4.456;2023-07-13T12:02:08;10.90;;;4.55;;
22715;SDS011;11525;51.152;4.456;2023-07-13T12:04:42;7.72;;;3.53;;
22715;SDS011;11525;51.152;4.456;2023-07-13T12:07:15;7.15;;;3.92;;
22715;SDS011;11525;51.152;4.456;2023-07-13T12:09:42;8.73;;;4.40;;
22715;SDS011;11525;51.152;4.456;2023-07-13T12:12:10;10.10;;;4.63;;
22715;SDS011;11525;51.152;4.456;2023-07-13T12:14:41;7.82;;;4.15;;
22715;SDS011;11525;51.152;4.456;2023-07-13T12:17:18;7.07;;;4.07;;
22715;SDS011;11525;51.152;4.456;2023-07-13T12:19:46;7.47;;;4.18;;
22715;SDS011;11525;51.152;4.456;2023-07-13T12:22:14;8.65;;;4.15;;
22715;SDS011;11525;51.152;4.456;2023-07-13T12:24:43;9.93;;;4.18;;
22715;SDS011;11525;51.152;4.456;2023-07-13T12:27:23;7.97;;;3.45;;
22715;SDS011;11525;51.152;4.456;2023-07-13T12:29:58;6.40;;;3.30;;
22715;SDS011;11525;51.152;4.456;2023-07-13T12:32:26;7.05;;;2.78;;
22715;SDS011;11525;51.152;4.456;2023-07-13T12:34:53;6.47;;;3.30;;
22715;SDS011;11525;51.152;4.456;2023-07-13T12:37:22;4.93;;;3.28;;
22715;SDS011;11525;51.152;4.456;2023-07-13T12:39:48;5.68;;;2.97;;
22715;SDS011;11525;51.152;4.456;2023-07-13T12:44:53;7.30;;;3.38;;
22715;SDS011;11525;51.152;4.456;2023-07-13T12:47:25;7.07;;;2.92;;
22715;SDS011;11525;51.152;4.456;2023-07-13T12:49:56;8.15;;;3.00;;
22715;SDS011;11525;51.152;4.456;2023-07-13T12:52:30;5.70;;;2.90;;
22715;SDS011;11525;51.152;4.456;2023-07-13T12:55:04;6.57;;;3.63;;
22715;SDS011;11525;51.152;4.456;2023-07-13T12:57:41;4.85;;;2.92;;
22715;SDS011;11525;51.152;4.456;2023-07-13T13:00:58;6.15;;;3.22;;
22715;SDS011;11525;51.152;4.456;2023-07-13T13:03:05;5.18;;;3.22;;
22715;SDS011;11525;51.152;4.456;2023-07-13T13:06:37;5.32;;;2.70;;
22715;SDS011;11525;51.152;4.456;2023-07-13T13:08:47;4.60;;;2.53;;
22715;SDS011;11525;51.152;4.456;2023-07-13T13:11:15;4.75;;;2.65;;
22715;SDS011;11525;51.152;4.456;2023-07-13T13:13:42;5.40;;;2.60;;
22715;SDS011;11525;51.152;4.456;2023-07-13T13:16:12;5.55;;;2.63;;
22715;SDS011;11525;51.152;4.456;2023-07-13T13:18:53;6.32;;;3.13;;
22715;SDS011;11525;51.152;4.456;2023-07-13T13:21:22;5.32;;;2.22;;
22715;SDS011;11525;51.152;4.456;2023-07-13T13:23:49;5.72;;;2.90;;
22715;SDS011;11525;51.152;4.456;2023-07-13T13:26:16;5.20;;;2.50;;
22715;SDS011;11525;51.152;4.456;2023-07-13T13:28:43;5.30;;;2.22;;
22715;SDS011;11525;51.152;4.456;2023-07-13T13:31:10;5.68;;;2.08;;
22715;SDS011;11525;51.152;4.456;2023-07-13T13:33:38;7.68;;;2.75;;
22715;SDS011;11525;51.152;4.456;2023-07-13T13:36:12;6.85;;;2.42;;
22715;SDS011;11525;51.152;4.456;2023-07-13T13:38:40;6.20;;;2.38;;
22715;SDS011;11525;51.152;4.456;2023-07-13T13:41:07;7.63;;;2.53;;
22715;SDS011;11525;51.152;4.456;2023-07-13T13:43:38;5.63;;;2.53;;
22715;SDS011;11525;51.152;4.456;2023-07-13T13:46:09;4.63;;;2.00;;
22715;SDS011;11525;51.152;4.456;2023-07-13T13:48:39;6.45;;;2.60;;
22715;SDS011;11525;51.152;4.456;2023-07-13T13:51:16;4.47;;;2.50;;
22715;SDS011;11525;51.152;4.456;2023-07-13T13:53:44;4.85;;;2.30;;
22715;SDS011;11525;51.152;4.456;2023-07-13T13:56:11;8.43;;;3.60;;
22715;SDS011;11525;51.152;4.456;2023-07-13T13:58:38;8.02;;;2.30;;
22715;SDS011;11525;51.152;4.456;2023-07-13T14:01:04;5.88;;;2.03;;
22715;SDS011;11525;51.152;4.456;2023-07-13T14:03:33;4.07;;;1.80;;
22715;SDS011;11525;51.152;4.456;2023-07-13T14:05:59;13.65;;;2.30;;
22715;SDS011;11525;51.152;4.456;2023-07-13T14:08:25;4.95;;;2.05;;
22715;SDS011;11525;51.152;4.456;2023-07-13T14:10:51;5.05;;;2.10;;
22715;SDS011;11525;51.152;4.456;2023-07-13T14:13:21;6.72;;;2.13;;
22715;SDS011;11525;51.152;4.456;2023-07-13T14:15:52;10.18;;;2.45;;
22715;SDS011;11525;51.152;4.456;2023-07-13T14:18:18;3.92;;;1.80;;
22715;SDS011;11525;51.152;4.456;2023-07-13T14:20:45;4.43;;;1.85;;
22715;SDS011;11525;51.152;4.456;2023-07-13T14:23:15;3.70;;;2.25;;
22715;SDS011;11525;51.152;4.456;2023-07-13T14:25:42;8.60;;;2.28;;
22715;SDS011;11525;51.152;4.456;2023-07-13T14:28:23;4.00;;;1.92;;
22715;SDS011;11525;51.152;4.456;2023-07-13T14:30:51;8.73;;;2.90;;
22715;SDS011;11525;51.152;4.456;2023-07-13T14:33:17;6.03;;;1.77;;
22715;SDS011;11525;51.152;4.456;2023-07-13T14:35:43;8.27;;;2.00;;
22715;SDS011;11525;51.152;4.456;2023-07-13T14:38:16;5.07;;;1.85;;
22715;SDS011;11525;51.152;4.456;2023-07-13T14:40:44;3.58;;;1.90;;
22715;SDS011;11525;51.152;4.456;2023-07-13T14:43:11;8.32;;;2.50;;
22715;SDS011;11525;51.152;4.456;2023-07-13T14:45:44;5.72;;;1.95;;
22715;SDS011;11525;51.152;4.456;2023-07-13T14:50:40;5.38;;;2.10;;
22715;SDS011;11525;51.152;4.456;2023-07-13T14:53:08;4.10;;;1.70;;
22715;SDS011;11525;51.152;4.456;2023-07-13T14:55:35;7.85;;;2.10;;
22715;SDS011;11525;51.152;4.456;2023-07-13T14:58:01;8.68;;;1.92;;
22715;SDS011;11525;51.152;4.456;2023-07-13T15:00:27;6.93;;;1.80;;
22715;SDS011;11525;51.152;4.456;2023-07-13T15:02:55;2.42;;;1.67;;
22715;SDS011;11525;51.152;4.456;2023-07-13T15:05:26;4.15;;;2.08;;
22715;SDS011;11525;51.152;4.456;2023-07-13T15:07:56;7.95;;;2.63;;
22715;SDS011;11525;51.152;4.456;2023-07-13T15:10:28;6.88;;;2.13;;
22715;SDS011;11525;51.152;4.456;2023-07-13T15:13:15;5.03;;;2.25;;
22715;SDS011;11525;51.152;4.456;2023-07-13T15:15:43;3.38;;;2.10;;
22715;SDS011;11525;51.152;4.456;2023-07-13T15:18:12;6.05;;;2.00;;
22715;SDS011;11525;51.152;4.456;2023-07-13T15:20:41;7.43;;;2.10;;
22715;SDS011;11525;51.152;4.456;2023-07-13T15:23:09;5.70;;;2.15;;
22715;SDS011;11525;51.152;4.456;2023-07-13T15:25:36;5.80;;;2.05;;
22715;SDS011;11525;51.152;4.456;2023-07-13T15:28:02;6.85;;;1.80;;
22715;SDS011;11525;51.152;4.456;2023-07-13T15:30:31;3.83;;;1.92;;
22715;SDS011;11525;51.152;4.456;2023-07-13T15:33:43;6.55;;;2.10;;